sensor_id;sensor_type;location;lat;lon;timestamp;P1;durP1;ratioP1;P2;durP2;ratioP2
71253;SDS011;59019;47.638;18.966;2023-04-08T00:01:05;20.23;;;9.68;;
71253;SDS011;59019;47.638;18.966;2023-04-08T00:03:31;18.97;;;8.83;;
71253;SDS011;59019;47.638;18.966;2023-04-08T00:05:57;23.77;;;10.00;;
71253;SDS011;59019;47.638;18.966;2023-04-08T00:08:22;21.60;;;9.82;;
71253;SDS011;59019;47.638;18.966;2023-04-08T00:10:48;21.00;;;9.90;;
71253;SDS011;59019;47.638;18.966;2023-04-08T00:13:14;21.52;;;9.95;;
71253;SDS011;59019;47.638;18.966;2023-04-08T00:15:40;24.57;;;10.03;;
71253;SDS011;59019;47.638;18.966;2023-04-08T00:18:06;22.55;;;10.20;;
71253;SDS011;59019;47.638;18.966;2023-04-08T00:20:32;22.40;;;9.43;;
71253;SDS011;59019;47.638;18.966;2023-04-08T00:22:57;22.37;;;10.20;;
71253;SDS011;59019;47.638;18.966;2023-04-08T00:25:23;26.27;;;10.97;;
71253;SDS011;59019;47.638;18.966;2023-04-08T00:27:49;25.40;;;11.10;;
71253;SDS011;59019;47.638;18.966;2023-04-08T00:30:14;23.77;;;10.40;;
71253;SDS011;59019;47.638;18.966;2023-04-08T00:32:40;23.45;;;10.27;;
71253;SDS011;59019;47.638;18.966;2023-04-08T00:35:06;24.43;;;10.57;;
71253;SDS011;59019;47.638;18.966;2023-04-08T00:37:31;23.88;;;10.35;;
71253;SDS011;59019;47.638;18.966;2023-04-08T00:39:57;23.70;;;10.33;;
71253;SDS011;59019;47.638;18.966;2023-04-08T00:42:23;24.93;;;11.23;;
71253;SDS011;59019;47.638;18.966;2023-04-08T00:44:48;24.80;;;11.00;;
71253;SDS011;59019;47.638;18.966;2023-04-08T00:47:14;24.13;;;9.90;;
71253;SDS011;59019;47.638;18.966;2023-04-08T00:49:40;25.38;;;10.65;;
71253;SDS011;59019;47.638;18.966;2023-04-08T00:52:06;26.67;;;11.48;;
71253;SDS011;59019;47.638;18.966;2023-04-08T00:54:32;25.73;;;10.60;;
71253;SDS011;59019;47.638;18.966;2023-04-08T00:56:57;26.47;;;11.33;;
71253;SDS011;59019;47.638;18.966;2023-04-08T00:59:26;25.20;;;10.38;;
71253;SDS011;59019;47.638;18.966;2023-04-08T01:04:52;23.00;;;10.18;;
71253;SDS011;59019;47.638;18.966;2023-04-08T01:07:36;24.00;;;10.73;;
71253;SDS011;59019;47.638;18.966;2023-04-08T01:10:15;23.65;;;10.38;;
71253;SDS011;59019;47.638;18.966;2023-04-08T01:12:50;22.77;;;9.85;;
71253;SDS011;59019;47.638;18.966;2023-04-08T01:15:19;24.58;;;10.23;;
71253;SDS011;59019;47.638;18.966;2023-04-08T01:17:45;24.73;;;10.60;;
71253;SDS011;59019;47.638;18.966;2023-04-08T01:20:14;23.63;;;10.37;;
71253;SDS011;59019;47.638;18.966;2023-04-08T01:22:51;25.73;;;11.13;;
71253;SDS011;59019;47.638;18.966;2023-04-08T01:25:32;24.88;;;10.95;;
71253;SDS011;59019;47.638;18.966;2023-04-08T01:28:11;24.85;;;10.00;;
71253;SDS011;59019;47.638;18.966;2023-04-08T01:30:39;25.70;;;10.85;;
71253;SDS011;59019;47.638;18.966;2023-04-08T01:33:06;25.17;;;11.10;;
71253;SDS011;59019;47.638;18.966;2023-04-08T01:35:35;23.23;;;10.57;;
71253;SDS011;59019;47.638;18.966;2023-04-08T01:38:01;25.55;;;11.05;;
71253;SDS011;59019;47.638;18.966;2023-04-08T01:40:29;25.15;;;11.55;;
71253;SDS011;59019;47.638;18.966;2023-04-08T01:42:55;28.02;;;11.65;;
71253;SDS011;59019;47.638;18.966;2023-04-08T01:45:23;25.10;;;10.87;;
71253;SDS011;59019;47.638;18.966;2023-04-08T01:47:49;27.27;;;11.07;;
71253;SDS011;59019;47.638;18.966;2023-04-08T01:50:17;25.40;;;11.20;;
71253;SDS011;59019;47.638;18.966;2023-04-08T01:52:45;24.13;;;10.70;;
71253;SDS011;59019;47.638;18.966;2023-04-08T01:55:13;26.98;;;11.50;;
71253;SDS011;59019;47.638;18.966;2023-04-08T01:57:39;24.83;;;10.90;;
71253;SDS011;59019;47.638;18.966;2023-04-08T02:00:08;26.23;;;10.75;;
71253;SDS011;59019;47.638;18.966;2023-04-08T02:02:36;29.33;;;11.20;;
71253;SDS011;59019;47.638;18.966;2023-04-08T02:05:05;23.15;;;9.85;;
71253;SDS011;59019;47.638;18.966;2023-04-08T02:07:31;23.83;;;10.35;;
71253;SDS011;59019;47.638;18.966;2023-04-08T02:09:56;23.00;;;9.83;;
71253;SDS011;59019;47.638;18.966;2023-04-08T02:12:22;25.83;;;10.93;;
71253;SDS011;59019;47.638;18.966;2023-04-08T02:14:49;23.27;;;9.77;;
71253;SDS011;59019;47.638;18.966;2023-04-08T02:17:18;23.08;;;9.75;;
71253;SDS011;59019;47.638;18.966;2023-04-08T02:20:02;23.02;;;9.38;;
71253;SDS011;59019;47.638;18.966;2023-04-08T02:25:15;23.13;;;9.98;;
71253;SDS011;59019;47.638;18.966;2023-04-08T02:27:43;21.23;;;9.87;;
71253;SDS011;59019;47.638;18.966;2023-04-08T02:30:10;27.25;;;11.05;;
71253;SDS011;59019;47.638;18.966;2023-04-08T02:32:37;24.35;;;11.10;;
71253;SDS011;59019;47.638;18.966;2023-04-08T02:35:04;25.33;;;10.43;;
71253;SDS011;59019;47.638;18.966;2023-04-08T02:37:30;22.45;;;10.00;;
71253;SDS011;59019;47.638;18.966;2023-04-08T02:39:56;23.13;;;9.87;;
71253;SDS011;59019;47.638;18.966;2023-04-08T02:42:22;19.77;;;9.02;;
71253;SDS011;59019;47.638;18.966;2023-04-08T02:44:47;22.50;;;9.47;;
71253;SDS011;59019;47.638;18.966;2023-04-08T02:47:13;22.95;;;9.73;;
71253;SDS011;59019;47.638;18.966;2023-04-08T02:49:39;18.98;;;8.75;;
71253;SDS011;59019;47.638;18.966;2023-04-08T02:52:05;20.37;;;9.27;;
71253;SDS011;59019;47.638;18.966;2023-04-08T02:54:30;19.88;;;9.68;;
71253;SDS011;59019;47.638;18.966;2023-04-08T02:56:56;20.67;;;9.17;;
71253;SDS011;59019;47.638;18.966;2023-04-08T02:59:21;21.98;;;10.48;;
71253;SDS011;59019;47.638;18.966;2023-04-08T03:01:48;21.47;;;8.53;;
71253;SDS011;59019;47.638;18.966;2023-04-08T03:04:13;20.88;;;9.15;;
71253;SDS011;59019;47.638;18.966;2023-04-08T03:06:39;20.10;;;8.63;;
71253;SDS011;59019;47.638;18.966;2023-04-08T03:09:05;21.52;;;9.35;;
71253;SDS011;59019;47.638;18.966;2023-04-08T03:11:31;21.57;;;9.23;;
71253;SDS011;59019;47.638;18.966;2023-04-08T03:13:56;21.38;;;9.20;;
71253;SDS011;59019;47.638;18.966;2023-04-08T03:16:22;21.37;;;9.37;;
71253;SDS011;59019;47.638;18.966;2023-04-08T03:18:48;22.30;;;10.48;;
71253;SDS011;59019;47.638;18.966;2023-04-08T03:21:16;20.53;;;9.03;;
71253;SDS011;59019;47.638;18.966;2023-04-08T03:23:43;21.08;;;9.80;;
71253;SDS011;59019;47.638;18.966;2023-04-08T03:26:08;22.55;;;10.18;;
71253;SDS011;59019;47.638;18.966;2023-04-08T03:28:34;23.73;;;10.30;;
71253;SDS011;59019;47.638;18.966;2023-04-08T03:31:00;19.83;;;8.57;;
71253;SDS011;59019;47.638;18.966;2023-04-08T03:33:28;21.20;;;9.37;;
71253;SDS011;59019;47.638;18.966;2023-04-08T03:35:53;19.17;;;9.63;;
71253;SDS011;59019;47.638;18.966;2023-04-08T03:38:19;21.17;;;9.13;;
71253;SDS011;59019;47.638;18.966;2023-04-08T03:40:44;21.38;;;9.55;;
71253;SDS011;59019;47.638;18.966;2023-04-08T03:43:10;23.07;;;10.37;;
71253;SDS011;59019;47.638;18.966;2023-04-08T03:45:37;22.23;;;9.50;;
71253;SDS011;59019;47.638;18.966;2023-04-08T03:48:02;23.40;;;9.40;;
71253;SDS011;59019;47.638;18.966;2023-04-08T03:50:28;21.02;;;9.35;;
71253;SDS011;59019;47.638;18.966;2023-04-08T03:52:54;21.93;;;9.77;;
71253;SDS011;59019;47.638;18.966;2023-04-08T03:55:20;20.42;;;8.73;;
71253;SDS011;59019;47.638;18.966;2023-04-08T03:57:46;21.65;;;9.35;;
71253;SDS011;59019;47.638;18.966;2023-04-08T04:00:13;21.90;;;9.00;;
71253;SDS011;59019;47.638;18.966;2023-04-08T04:02:38;19.75;;;9.43;;
71253;SDS011;59019;47.638;18.966;2023-04-08T04:05:04;23.98;;;10.35;;
71253;SDS011;59019;47.638;18.966;2023-04-08T04:07:30;24.07;;;11.27;;
71253;SDS011;59019;47.638;18.966;2023-04-08T04:09:56;22.60;;;10.70;;
71253;SDS011;59019;47.638;18.966;2023-04-08T04:12:22;29.67;;;15.10;;
71253;SDS011;59019;47.638;18.966;2023-04-08T04:14:47;27.45;;;12.20;;
71253;SDS011;59019;47.638;18.966;2023-04-08T04:17:13;25.53;;;10.90;;
71253;SDS011;59019;47.638;18.966;2023-04-08T04:19:39;26.85;;;11.50;;
71253;SDS011;59019;47.638;18.966;2023-04-08T04:22:05;22.27;;;9.63;;
71253;SDS011;59019;47.638;18.966;2023-04-08T04:24:30;26.05;;;10.93;;
71253;SDS011;59019;47.638;18.966;2023-04-08T04:26:56;24.23;;;10.63;;
71253;SDS011;59019;47.638;18.966;2023-04-08T04:29:21;24.35;;;11.00;;
71253;SDS011;59019;47.638;18.966;2023-04-08T04:31:47;24.27;;;11.07;;
71253;SDS011;59019;47.638;18.966;2023-04-08T04:34:13;24.07;;;10.70;;
71253;SDS011;59019;47.638;18.966;2023-04-08T04:36:38;24.07;;;9.53;;
71253;SDS011;59019;47.638;18.966;2023-04-08T04:39:04;22.83;;;10.10;;
71253;SDS011;59019;47.638;18.966;2023-04-08T04:41:29;23.50;;;10.57;;
71253;SDS011;59019;47.638;18.966;2023-04-08T04:43:55;26.83;;;12.05;;
71253;SDS011;59019;47.638;18.966;2023-04-08T04:46:21;24.75;;;11.13;;
71253;SDS011;59019;47.638;18.966;2023-04-08T04:48:46;23.93;;;9.70;;
71253;SDS011;59019;47.638;18.966;2023-04-08T04:51:12;25.67;;;10.93;;
71253;SDS011;59019;47.638;18.966;2023-04-08T04:53:38;25.33;;;10.83;;
71253;SDS011;59019;47.638;18.966;2023-04-08T04:56:04;25.98;;;10.95;;
71253;SDS011;59019;47.638;18.966;2023-04-08T04:58:29;23.07;;;10.37;;
71253;SDS011;59019;47.638;18.966;2023-04-08T05:00:55;26.40;;;11.48;;
71253;SDS011;59019;47.638;18.966;2023-04-08T05:03:21;23.90;;;10.30;;
71253;SDS011;59019;47.638;18.966;2023-04-08T05:05:53;25.67;;;10.57;;
71253;SDS011;59019;47.638;18.966;2023-04-08T05:08:20;26.00;;;11.23;;
71253;SDS011;59019;47.638;18.966;2023-04-08T05:10:46;29.67;;;12.13;;
71253;SDS011;59019;47.638;18.966;2023-04-08T05:13:14;26.35;;;11.55;;
71253;SDS011;59019;47.638;18.966;2023-04-08T05:15:39;30.87;;;15.00;;
71253;SDS011;59019;47.638;18.966;2023-04-08T05:18:05;32.80;;;15.25;;
71253;SDS011;59019;47.638;18.966;2023-04-08T05:20:30;25.73;;;11.73;;
71253;SDS011;59019;47.638;18.966;2023-04-08T05:22:56;31.93;;;14.80;;
71253;SDS011;59019;47.638;18.966;2023-04-08T05:25:21;27.37;;;12.30;;
71253;SDS011;59019;47.638;18.966;2023-04-08T05:27:47;28.75;;;12.80;;
71253;SDS011;59019;47.638;18.966;2023-04-08T05:30:12;32.20;;;12.30;;
71253;SDS011;59019;47.638;18.966;2023-04-08T05:32:38;26.93;;;11.77;;
71253;SDS011;59019;47.638;18.966;2023-04-08T05:35:03;27.87;;;11.50;;
71253;SDS011;59019;47.638;18.966;2023-04-08T05:37:29;26.85;;;11.98;;
71253;SDS011;59019;47.638;18.966;2023-04-08T05:39:55;25.43;;;11.47;;
71253;SDS011;59019;47.638;18.966;2023-04-08T05:42:20;29.23;;;13.00;;
71253;SDS011;59019;47.638;18.966;2023-04-08T05:44:46;27.30;;;11.37;;
71253;SDS011;59019;47.638;18.966;2023-04-08T05:47:11;27.33;;;12.07;;
71253;SDS011;59019;47.638;18.966;2023-04-08T05:49:38;60.67;;;24.20;;
71253;SDS011;59019;47.638;18.966;2023-04-08T05:52:04;34.38;;;14.23;;
71253;SDS011;59019;47.638;18.966;2023-04-08T05:54:30;28.53;;;12.10;;
71253;SDS011;59019;47.638;18.966;2023-04-08T05:56:56;28.48;;;12.50;;
71253;SDS011;59019;47.638;18.966;2023-04-08T05:59:22;29.63;;;12.83;;
71253;SDS011;59019;47.638;18.966;2023-04-08T06:01:47;34.30;;;14.77;;
71253;SDS011;59019;47.638;18.966;2023-04-08T06:04:13;32.40;;;13.93;;
71253;SDS011;59019;47.638;18.966;2023-04-08T06:06:38;30.23;;;13.37;;
71253;SDS011;59019;47.638;18.966;2023-04-08T06:09:04;29.70;;;13.48;;
71253;SDS011;59019;47.638;18.966;2023-04-08T06:11:30;30.80;;;13.83;;
71253;SDS011;59019;47.638;18.966;2023-04-08T06:13:55;32.40;;;13.93;;
71253;SDS011;59019;47.638;18.966;2023-04-08T06:16:21;33.47;;;13.32;;
71253;SDS011;59019;47.638;18.966;2023-04-08T06:18:47;29.87;;;12.23;;
71253;SDS011;59019;47.638;18.966;2023-04-08T06:21:12;34.25;;;13.15;;
71253;SDS011;59019;47.638;18.966;2023-04-08T06:23:38;31.70;;;14.27;;
71253;SDS011;59019;47.638;18.966;2023-04-08T06:26:04;32.00;;;14.67;;
71253;SDS011;59019;47.638;18.966;2023-04-08T06:28:30;30.75;;;14.10;;
71253;SDS011;59019;47.638;18.966;2023-04-08T06:30:56;26.08;;;11.52;;
71253;SDS011;59019;47.638;18.966;2023-04-08T06:33:23;28.75;;;12.15;;
71253;SDS011;59019;47.638;18.966;2023-04-08T06:35:49;31.40;;;13.50;;
71253;SDS011;59019;47.638;18.966;2023-04-08T06:38:15;27.35;;;11.70;;
71253;SDS011;59019;47.638;18.966;2023-04-08T06:40:40;28.97;;;12.70;;
71253;SDS011;59019;47.638;18.966;2023-04-08T06:43:06;25.63;;;11.50;;
71253;SDS011;59019;47.638;18.966;2023-04-08T06:45:32;28.20;;;11.30;;
71253;SDS011;59019;47.638;18.966;2023-04-08T06:47:58;28.23;;;12.45;;
71253;SDS011;59019;47.638;18.966;2023-04-08T06:50:24;24.52;;;11.77;;
71253;SDS011;59019;47.638;18.966;2023-04-08T06:52:49;30.00;;;13.33;;
71253;SDS011;59019;47.638;18.966;2023-04-08T06:55:15;26.60;;;11.33;;
71253;SDS011;59019;47.638;18.966;2023-04-08T06:57:41;27.67;;;11.73;;
71253;SDS011;59019;47.638;18.966;2023-04-08T07:00:06;29.83;;;12.50;;
71253;SDS011;59019;47.638;18.966;2023-04-08T07:02:32;34.28;;;14.15;;
71253;SDS011;59019;47.638;18.966;2023-04-08T07:04:58;28.33;;;12.43;;
71253;SDS011;59019;47.638;18.966;2023-04-08T07:07:24;27.42;;;11.93;;
71253;SDS011;59019;47.638;18.966;2023-04-08T07:09:50;28.57;;;12.63;;
71253;SDS011;59019;47.638;18.966;2023-04-08T07:12:16;30.42;;;13.65;;
71253;SDS011;59019;47.638;18.966;2023-04-08T07:14:41;30.87;;;13.20;;
71253;SDS011;59019;47.638;18.966;2023-04-08T07:17:07;29.38;;;12.95;;
71253;SDS011;59019;47.638;18.966;2023-04-08T07:19:32;28.30;;;11.87;;
71253;SDS011;59019;47.638;18.966;2023-04-08T07:21:58;25.00;;;10.93;;
71253;SDS011;59019;47.638;18.966;2023-04-08T07:24:24;25.42;;;11.80;;
71253;SDS011;59019;47.638;18.966;2023-04-08T07:26:50;22.65;;;10.93;;
71253;SDS011;59019;47.638;18.966;2023-04-08T07:29:17;27.57;;;11.80;;
71253;SDS011;59019;47.638;18.966;2023-04-08T07:31:43;27.80;;;12.55;;
71253;SDS011;59019;47.638;18.966;2023-04-08T07:34:09;24.77;;;10.73;;
71253;SDS011;59019;47.638;18.966;2023-04-08T07:36:34;27.03;;;11.37;;
71253;SDS011;59019;47.638;18.966;2023-04-08T07:39:00;28.98;;;12.48;;
71253;SDS011;59019;47.638;18.966;2023-04-08T07:41:26;30.27;;;13.03;;
71253;SDS011;59019;47.638;18.966;2023-04-08T07:43:52;25.77;;;11.27;;
71253;SDS011;59019;47.638;18.966;2023-04-08T07:46:17;29.53;;;12.43;;
71253;SDS011;59019;47.638;18.966;2023-04-08T07:48:44;26.70;;;11.35;;
71253;SDS011;59019;47.638;18.966;2023-04-08T07:51:10;29.87;;;12.00;;
71253;SDS011;59019;47.638;18.966;2023-04-08T07:53:35;25.83;;;12.25;;
71253;SDS011;59019;47.638;18.966;2023-04-08T07:56:01;25.57;;;11.20;;
71253;SDS011;59019;47.638;18.966;2023-04-08T07:58:29;23.85;;;10.50;;
71253;SDS011;59019;47.638;18.966;2023-04-08T08:00:56;25.20;;;11.65;;
71253;SDS011;59019;47.638;18.966;2023-04-08T08:03:22;25.83;;;11.87;;
71253;SDS011;59019;47.638;18.966;2023-04-08T08:05:48;23.13;;;10.82;;
71253;SDS011;59019;47.638;18.966;2023-04-08T08:08:13;23.47;;;11.20;;
71253;SDS011;59019;47.638;18.966;2023-04-08T08:10:39;21.27;;;10.10;;
71253;SDS011;59019;47.638;18.966;2023-04-08T08:13:05;23.40;;;10.00;;
71253;SDS011;59019;47.638;18.966;2023-04-08T08:15:32;23.83;;;10.75;;
71253;SDS011;59019;47.638;18.966;2023-04-08T08:17:57;23.90;;;10.73;;
71253;SDS011;59019;47.638;18.966;2023-04-08T08:20:23;23.77;;;11.05;;
71253;SDS011;59019;47.638;18.966;2023-04-08T08:22:48;21.57;;;10.43;;
71253;SDS011;59019;47.638;18.966;2023-04-08T08:25:14;23.95;;;11.02;;
71253;SDS011;59019;47.638;18.966;2023-04-08T08:27:40;23.60;;;10.20;;
71253;SDS011;59019;47.638;18.966;2023-04-08T08:30:06;21.98;;;9.88;;
71253;SDS011;59019;47.638;18.966;2023-04-08T08:32:33;23.40;;;10.85;;
71253;SDS011;59019;47.638;18.966;2023-04-08T08:34:59;21.73;;;9.50;;
71253;SDS011;59019;47.638;18.966;2023-04-08T08:37:25;22.17;;;10.57;;
71253;SDS011;59019;47.638;18.966;2023-04-08T08:39:50;22.48;;;10.60;;
71253;SDS011;59019;47.638;18.966;2023-04-08T08:42:19;18.60;;;8.70;;
71253;SDS011;59019;47.638;18.966;2023-04-08T08:44:49;19.95;;;9.23;;
71253;SDS011;59019;47.638;18.966;2023-04-08T08:47:15;22.88;;;10.27;;
71253;SDS011;59019;47.638;18.966;2023-04-08T08:49:41;19.17;;;8.47;;
71253;SDS011;59019;47.638;18.966;2023-04-08T08:52:08;19.15;;;9.10;;
71253;SDS011;59019;47.638;18.966;2023-04-08T08:54:34;20.27;;;8.45;;
71253;SDS011;59019;47.638;18.966;2023-04-08T08:56:59;18.30;;;8.07;;
71253;SDS011;59019;47.638;18.966;2023-04-08T08:59:25;18.90;;;8.10;;
71253;SDS011;59019;47.638;18.966;2023-04-08T09:01:51;20.37;;;8.40;;
71253;SDS011;59019;47.638;18.966;2023-04-08T09:04:17;18.47;;;8.47;;
71253;SDS011;59019;47.638;18.966;2023-04-08T09:06:45;21.52;;;10.00;;
71253;SDS011;59019;47.638;18.966;2023-04-08T09:09:11;20.52;;;9.75;;
71253;SDS011;59019;47.638;18.966;2023-04-08T09:11:38;18.98;;;9.05;;
71253;SDS011;59019;47.638;18.966;2023-04-08T09:14:15;17.20;;;8.47;;
71253;SDS011;59019;47.638;18.966;2023-04-08T09:16:50;18.02;;;8.55;;
71253;SDS011;59019;47.638;18.966;2023-04-08T09:19:16;16.42;;;8.05;;
71253;SDS011;59019;47.638;18.966;2023-04-08T09:21:42;17.65;;;9.02;;
71253;SDS011;59019;47.638;18.966;2023-04-08T09:24:09;20.97;;;9.40;;
71253;SDS011;59019;47.638;18.966;2023-04-08T09:26:50;31.52;;;13.55;;
71253;SDS011;59019;47.638;18.966;2023-04-08T09:29:16;41.43;;;16.17;;
71253;SDS011;59019;47.638;18.966;2023-04-08T09:31:41;27.27;;;13.32;;
71253;SDS011;59019;47.638;18.966;2023-04-08T09:34:11;33.40;;;15.07;;
71253;SDS011;59019;47.638;18.966;2023-04-08T09:36:41;23.80;;;11.35;;
71253;SDS011;59019;47.638;18.966;2023-04-08T09:39:08;20.07;;;10.07;;
71253;SDS011;59019;47.638;18.966;2023-04-08T09:41:35;21.02;;;9.55;;
71253;SDS011;59019;47.638;18.966;2023-04-08T09:44:02;20.83;;;10.10;;
71253;SDS011;59019;47.638;18.966;2023-04-08T09:46:35;19.13;;;9.77;;
71253;SDS011;59019;47.638;18.966;2023-04-08T09:49:18;20.60;;;10.35;;
71253;SDS011;59019;47.638;18.966;2023-04-08T10:00:18;28.25;;;13.27;;
71253;SDS011;59019;47.638;18.966;2023-04-08T10:05:25;33.80;;;15.53;;
71253;SDS011;59019;47.638;18.966;2023-04-08T10:07:52;41.50;;;16.55;;
71253;SDS011;59019;47.638;18.966;2023-04-08T10:10:19;28.60;;;13.77;;
71253;SDS011;59019;47.638;18.966;2023-04-08T10:12:46;27.85;;;13.80;;
71253;SDS011;59019;47.638;18.966;2023-04-08T10:17:56;22.37;;;11.67;;
71253;SDS011;59019;47.638;18.966;2023-04-08T10:20:45;27.63;;;12.73;;
71253;SDS011;59019;47.638;18.966;2023-04-08T10:23:12;26.55;;;13.30;;
71253;SDS011;59019;47.638;18.966;2023-04-08T10:25:41;17.85;;;9.77;;
71253;SDS011;59019;47.638;18.966;2023-04-08T10:33:09;14.52;;;7.57;;
71253;SDS011;59019;47.638;18.966;2023-04-08T10:35:46;15.85;;;8.55;;
71253;SDS011;59019;47.638;18.966;2023-04-08T10:38:13;15.77;;;7.95;;
71253;SDS011;59019;47.638;18.966;2023-04-08T10:40:40;14.77;;;8.00;;
71253;SDS011;59019;47.638;18.966;2023-04-08T10:43:07;14.80;;;7.97;;
71253;SDS011;59019;47.638;18.966;2023-04-08T10:45:38;14.52;;;8.07;;
71253;SDS011;59019;47.638;18.966;2023-04-08T10:51:02;14.70;;;7.82;;
71253;SDS011;59019;47.638;18.966;2023-04-08T10:53:32;14.10;;;7.80;;
71253;SDS011;59019;47.638;18.966;2023-04-08T10:56:10;13.73;;;7.50;;
71253;SDS011;59019;47.638;18.966;2023-04-08T10:58:51;14.68;;;7.70;;
71253;SDS011;59019;47.638;18.966;2023-04-08T11:01:20;15.88;;;7.88;;
71253;SDS011;59019;47.638;18.966;2023-04-08T11:03:46;15.45;;;8.63;;
71253;SDS011;59019;47.638;18.966;2023-04-08T11:06:12;16.87;;;8.80;;
71253;SDS011;59019;47.638;18.966;2023-04-08T11:08:38;15.40;;;8.02;;
71253;SDS011;59019;47.638;18.966;2023-04-08T11:11:04;13.40;;;8.30;;
71253;SDS011;59019;47.638;18.966;2023-04-08T11:13:44;14.88;;;8.20;;
71253;SDS011;59019;47.638;18.966;2023-04-08T11:16:10;14.52;;;8.23;;
71253;SDS011;59019;47.638;18.966;2023-04-08T11:18:36;14.73;;;8.27;;
71253;SDS011;59019;47.638;18.966;2023-04-08T11:21:07;16.40;;;8.27;;
71253;SDS011;59019;47.638;18.966;2023-04-08T11:23:34;14.35;;;8.02;;
71253;SDS011;59019;47.638;18.966;2023-04-08T11:26:00;14.63;;;7.95;;
71253;SDS011;59019;47.638;18.966;2023-04-08T11:28:26;14.70;;;8.23;;
71253;SDS011;59019;47.638;18.966;2023-04-08T11:30:59;14.90;;;7.97;;
71253;SDS011;59019;47.638;18.966;2023-04-08T11:33:26;15.07;;;8.10;;
71253;SDS011;59019;47.638;18.966;2023-04-08T11:35:56;15.88;;;8.80;;
71253;SDS011;59019;47.638;18.966;2023-04-08T11:38:22;14.33;;;7.77;;
71253;SDS011;59019;47.638;18.966;2023-04-08T11:40:55;14.52;;;7.80;;
71253;SDS011;59019;47.638;18.966;2023-04-08T11:43:25;17.27;;;8.35;;
71253;SDS011;59019;47.638;18.966;2023-04-08T11:45:51;17.30;;;8.38;;
71253;SDS011;59019;47.638;18.966;2023-04-08T11:48:16;19.00;;;9.83;;
71253;SDS011;59019;47.638;18.966;2023-04-08T11:50:42;19.58;;;9.90;;
71253;SDS011;59019;47.638;18.966;2023-04-08T11:53:23;21.03;;;10.43;;
71253;SDS011;59019;47.638;18.966;2023-04-08T11:55:51;22.08;;;11.15;;
71253;SDS011;59019;47.638;18.966;2023-04-08T11:58:16;17.80;;;8.98;;
71253;SDS011;59019;47.638;18.966;2023-04-08T12:00:42;15.55;;;8.30;;
71253;SDS011;59019;47.638;18.966;2023-04-08T12:03:08;39.25;;;17.48;;
71253;SDS011;59019;47.638;18.966;2023-04-08T12:05:34;43.27;;;19.13;;
71253;SDS011;59019;47.638;18.966;2023-04-08T12:08:00;31.70;;;14.63;;
71253;SDS011;59019;47.638;18.966;2023-04-08T12:10:25;19.10;;;9.97;;
71253;SDS011;59019;47.638;18.966;2023-04-08T12:12:51;17.33;;;10.43;;
71253;SDS011;59019;47.638;18.966;2023-04-08T12:15:17;18.08;;;9.93;;
71253;SDS011;59019;47.638;18.966;2023-04-08T12:17:43;18.90;;;10.47;;
71253;SDS011;59019;47.638;18.966;2023-04-08T12:20:09;22.20;;;11.02;;
71253;SDS011;59019;47.638;18.966;2023-04-08T12:22:36;17.15;;;9.40;;
71253;SDS011;59019;47.638;18.966;2023-04-08T12:25:01;23.27;;;11.67;;
71253;SDS011;59019;47.638;18.966;2023-04-08T12:27:31;21.05;;;11.05;;
71253;SDS011;59019;47.638;18.966;2023-04-08T12:30:00;28.73;;;13.95;;
71253;SDS011;59019;47.638;18.966;2023-04-08T12:32:26;21.67;;;11.10;;
71253;SDS011;59019;47.638;18.966;2023-04-08T12:34:52;16.67;;;9.45;;
71253;SDS011;59019;47.638;18.966;2023-04-08T12:37:17;18.30;;;9.20;;
71253;SDS011;59019;47.638;18.966;2023-04-08T12:39:44;17.25;;;9.43;;
71253;SDS011;59019;47.638;18.966;2023-04-08T12:42:10;17.67;;;9.13;;
71253;SDS011;59019;47.638;18.966;2023-04-08T12:44:36;14.77;;;8.00;;
71253;SDS011;59019;47.638;18.966;2023-04-08T12:47:01;16.63;;;8.83;;
71253;SDS011;59019;47.638;18.966;2023-04-08T12:49:27;15.70;;;8.70;;
71253;SDS011;59019;47.638;18.966;2023-04-08T12:51:52;21.73;;;10.47;;
71253;SDS011;59019;47.638;18.966;2023-04-08T12:54:19;54.33;;;22.17;;
71253;SDS011;59019;47.638;18.966;2023-04-08T12:56:45;25.97;;;13.13;;
71253;SDS011;59019;47.638;18.966;2023-04-08T12:59:12;19.05;;;10.48;;
71253;SDS011;59019;47.638;18.966;2023-04-08T13:01:38;15.38;;;8.20;;
71253;SDS011;59019;47.638;18.966;2023-04-08T13:04:04;19.47;;;10.43;;
71253;SDS011;59019;47.638;18.966;2023-04-08T13:06:29;18.25;;;9.48;;
71253;SDS011;59019;47.638;18.966;2023-04-08T13:08:56;15.97;;;8.57;;
71253;SDS011;59019;47.638;18.966;2023-04-08T13:11:21;15.27;;;8.23;;
71253;SDS011;59019;47.638;18.966;2023-04-08T13:13:47;17.10;;;8.60;;
71253;SDS011;59019;47.638;18.966;2023-04-08T13:16:13;15.63;;;8.65;;
71253;SDS011;59019;47.638;18.966;2023-04-08T13:18:39;18.77;;;10.25;;
71253;SDS011;59019;47.638;18.966;2023-04-08T13:21:05;18.15;;;10.02;;
71253;SDS011;59019;47.638;18.966;2023-04-08T13:23:32;21.23;;;10.73;;
71253;SDS011;59019;47.638;18.966;2023-04-08T13:25:57;20.42;;;10.88;;
71253;SDS011;59019;47.638;18.966;2023-04-08T13:28:25;16.83;;;10.00;;
71253;SDS011;59019;47.638;18.966;2023-04-08T13:30:50;20.20;;;9.98;;
71253;SDS011;59019;47.638;18.966;2023-04-08T13:33:16;17.35;;;9.73;;
71253;SDS011;59019;47.638;18.966;2023-04-08T13:35:42;16.57;;;9.37;;
71253;SDS011;59019;47.638;18.966;2023-04-08T13:38:07;24.25;;;12.85;;
71253;SDS011;59019;47.638;18.966;2023-04-08T13:40:33;19.23;;;10.80;;
71253;SDS011;59019;47.638;18.966;2023-04-08T13:42:58;19.77;;;11.10;;
71253;SDS011;59019;47.638;18.966;2023-04-08T13:45:24;19.25;;;10.40;;
71253;SDS011;59019;47.638;18.966;2023-04-08T13:47:49;17.53;;;10.40;;
71253;SDS011;59019;47.638;18.966;2023-04-08T13:50:16;17.60;;;10.40;;
71253;SDS011;59019;47.638;18.966;2023-04-08T13:52:41;19.08;;;10.52;;
71253;SDS011;59019;47.638;18.966;2023-04-08T13:55:07;21.73;;;11.50;;
71253;SDS011;59019;47.638;18.966;2023-04-08T13:57:33;17.98;;;10.13;;
71253;SDS011;59019;47.638;18.966;2023-04-08T14:00:00;19.77;;;10.30;;
71253;SDS011;59019;47.638;18.966;2023-04-08T14:02:26;18.27;;;10.18;;
71253;SDS011;59019;47.638;18.966;2023-04-08T14:04:52;18.30;;;9.87;;
71253;SDS011;59019;47.638;18.966;2023-04-08T14:07:17;17.00;;;9.80;;
71253;SDS011;59019;47.638;18.966;2023-04-08T14:09:45;15.02;;;8.75;;
71253;SDS011;59019;47.638;18.966;2023-04-08T14:12:10;18.35;;;11.00;;
71253;SDS011;59019;47.638;18.966;2023-04-08T14:14:38;17.83;;;9.88;;
71253;SDS011;59019;47.638;18.966;2023-04-08T14:17:03;16.05;;;8.77;;
71253;SDS011;59019;47.638;18.966;2023-04-08T14:19:29;16.40;;;9.23;;
71253;SDS011;59019;47.638;18.966;2023-04-08T14:21:54;22.63;;;13.17;;
71253;SDS011;59019;47.638;18.966;2023-04-08T14:24:20;19.70;;;11.35;;
71253;SDS011;59019;47.638;18.966;2023-04-08T14:26:45;23.33;;;12.70;;
71253;SDS011;59019;47.638;18.966;2023-04-08T14:29:11;17.90;;;9.63;;
71253;SDS011;59019;47.638;18.966;2023-04-08T14:31:37;15.50;;;8.60;;
71253;SDS011;59019;47.638;18.966;2023-04-08T14:34:02;14.68;;;7.75;;
71253;SDS011;59019;47.638;18.966;2023-04-08T14:36:28;12.25;;;7.18;;
71253;SDS011;59019;47.638;18.966;2023-04-08T14:38:55;13.87;;;8.33;;